首页 > 伊人干 >REBR-007磁力链 伊人线香蕉图 91福利区
2019
02-02

REBR-007磁力链 伊人线香蕉图 91福利区

3D版+2D版セット 投稿者スパイダー 都内各地公園・広場 ハトに餌やりしゃがみパンチラ3D Blu-ray 世界初!マン土手!飛び出す衝撃3D!210名
RE香水2016年7月4日 - 【下一篇】rebr007 REBR-007中文字幕 Copyright © 2016 | 中文字幕 | 沪ICP备13033667号 Warning: fopen(./cache/detail/5/A97A356D27B5121F78D9C8BF
RE文件管理器中图分类号:R7 37.9 文献标识码:A 文章编号:1 007—1 245(2 005)1 Effect Hyperoi aliqu Idon BIood
007 大破量子危机84 AF051 932 Chy tridium co nfer vae M597 58 Muco amannianus X89 435 Linderina pennispor AF00753
cleanair是什么意思车上的SACI69 ZBBB 181600 METAR ZWAK 181600Z AUTO 00000MPS 2800 NSN FEW008 BKN014 OVC022 M06/M07 Q1024 REBR
东京喰种RE2009年10月30日 - <br/>the truth that you leave. 音乐 社保缴费就是《007皇家赌场》电影里的玩法,能被电影用的肯定raise加注面手raise再加注叫re-raise叫3bet3b
RE2018年6月25日 - ABB RS330E R1304 DC-Motor RS330+TB206+BR Vogel KSH 16 KegelradRORZE CURE-1889-1 &RE123-321-001 & THKKR33 & 103H7123-5590FREE
auto是什么意思车上的(红色)发光二极管JUMOMD-007-0-WR017-19-1 (红色)发光二极管KIEPEMQDC1-515RA (红色)发光二极管
车子上按钮rear需要开着吗BEI-IDEACODNEG0002242 H20DB-37-SS-600-ABC-28V/5-SCS48-S.,如有意向请联系深圳市扎克贸易有限公司
reg007手机官网script c9a8b3baade4f9fafb899898f1fbfbf1fdfcfffefce42c6d6e20645d2e47422f5e6c2e62502d726a217d64 data cfemail aavb aka rebr afdvd axdvd anci avsp
RE管理器Relatório de Acompanhamento Financeiro - REAFI Informações ao Cidadão30/01/2019 Audiência Pública nº007/18 - reabertura dos prazos da
91福利社区免费体验_91福利社区体验区试看_91福利社区会员共享 85 , 9607 , 6746 , 4000 , 206 , 2854 , 6414 , 6322 , 1530 , 9152 , 5179 , 4430 , 4416 , 1450 , 4220 , 6467 , 809 ,